Time;durP1;ratioP1;P1;durP2;ratioP2;P2;SDS_P1;SDS_P2;PMS_P1;PMS_P2;Temp;Humidity;BMP_temperature;BMP_pressure;BME280_temperature;BME280_humidity;BME280_pressure;Samples;Min_cycle;Max_cycle;Signal;HPM_P1;HPM_P2
2023/03/02 00:02:16;;;;;;;29.53;23.73;;;;;;;7.32;100.00;100059.81;5097520;28;20180;-55
2023/03/02 00:04:46;;;;;;;31.90;22.20;;;;;;;7.39;100.00;100060.91;5097615;28;20167;-55
2023/03/02 00:07:16;;;;;;;28.30;21.27;;;;;;;7.42;100.00;100063.56;5098021;28;20202;-55
2023/03/02 00:09:44;;;;;;;31.37;23.23;;;;;;;7.45;99.98;100069.66;5107935;28;20203;-55
2023/03/02 00:12:11;;;;;;;29.37;21.23;;;;;;;7.48;100.00;100058.69;5118332;28;20167;-56
2023/03/02 00:14:38;;;;;;;28.83;20.67;;;;;;;6.80;99.90;99951.31;5118464;28;20179;-55
2023/03/02 00:17:06;;;;;;;26.13;19.27;;;;;;;7.53;100.00;100065.72;5118497;28;20198;-55
2023/03/02 00:19:36;;;;;;;29.87;20.37;;;;;;;7.61;99.94;100056.63;5118191;28;20218;-55
2023/03/02 00:22:03;;;;;;;29.97;19.50;;;;;;;7.70;99.48;100059.53;5101524;28;20242;-55
2023/03/02 00:24:30;;;;;;;27.43;19.83;;;;;;;7.69;98.31;100059.50;5089187;28;20210;-55
2023/03/02 00:26:57;;;;;;;26.67;20.88;;;;;;;7.55;98.17;100035.94;5093684;28;20428;-55
2023/03/02 00:29:24;;;;;;;29.10;18.97;;;;;;;7.76;97.25;100058.00;5097621;28;20241;-55
2023/03/02 00:31:51;;;;;;;29.30;19.87;;;;;;;7.77;96.84;100058.09;5097727;28;20168;-55
2023/03/02 00:34:17;;;;;;;25.87;19.17;;;;;;;7.75;96.54;100053.75;5097629;28;20171;-56
2023/03/02 00:36:48;;;;;;;28.17;18.73;;;;;;;7.74;97.16;100063.09;5097549;28;20178;-55
2023/03/02 00:39:17;;;;;;;25.20;18.93;;;;;;;7.71;96.55;100055.31;5097603;28;20226;-55
2023/03/02 00:41:44;;;;;;;24.37;18.10;;;;;;;7.68;96.72;100060.31;5097355;28;20202;-55
2023/03/02 00:44:16;;;;;;;24.53;17.97;;;;;;;7.59;96.29;100058.28;5097525;28;20180;-55
2023/03/02 00:46:43;;;;;;;29.75;20.48;;;;;;;7.48;96.04;100064.69;5096815;28;20494;-55
2023/03/02 00:49:10;;;;;;;27.17;19.63;;;;;;;7.51;95.74;100057.13;5097377;28;20265;-55
2023/03/02 00:51:37;;;;;;;21.97;15.93;;;;;;;7.41;95.50;100039.72;5098865;28;20171;-55
2023/03/02 00:54:05;;;;;;;24.17;16.27;;;;;;;7.51;95.13;100046.03;5077252;28;20180;-56
2023/03/02 00:56:32;;;;;;;22.03;15.70;;;;;;;7.52;94.02;100046.09;5077188;28;20172;-55
2023/03/02 00:59:03;;;;;;;26.03;16.27;;;;;;;7.32;94.62;100043.59;5077112;28;20242;-55
2023/03/02 01:01:30;;;;;;;29.03;15.60;;;;;;;7.35;94.26;100044.59;5077101;28;20168;-55
2023/03/02 01:03:57;;;;;;;29.03;17.27;;;;;;;7.28;93.97;100042.59;5077154;28;20172;-55
2023/03/02 01:06:24;;;;;;;23.83;15.83;;;;;;;7.37;94.38;100045.50;5076959;28;20168;-54
2023/03/02 01:08:50;;;;;;;21.83;15.77;;;;;;;7.35;94.04;100039.47;5113714;28;20220;-55
2023/03/02 01:11:21;;;;;;;22.40;16.83;;;;;;;7.32;94.39;100041.91;5117457;28;20179;-55
2023/03/02 01:13:50;;;;;;;23.73;15.83;;;;;;;7.40;94.01;100043.06;5117499;28;20246;-55
2023/03/02 01:16:17;;;;;;;25.30;16.90;;;;;;;7.35;93.91;100038.59;5121438;28;20171;-55
2023/03/02 01:18:44;;;;;;;21.17;16.40;;;;;;;7.29;93.51;100044.34;5121334;28;20206;-56
2023/03/02 01:21:13;;;;;;;24.13;15.83;;;;;;;7.07;94.24;100034.13;5121385;28;20174;-55
2023/03/02 01:23:40;;;;;;;21.50;16.60;;;;;;;7.01;94.70;100033.88;5121390;28;20192;-55
2023/03/02 01:26:07;;;;;;;23.13;17.37;;;;;;;7.05;95.11;100035.75;5099984;28;20199;-55
2023/03/02 01:28:35;;;;;;;22.67;15.63;;;;;;;7.08;95.22;100028.22;5100741;28;20202;-55
2023/03/02 01:31:03;;;;;;;19.40;15.00;;;;;;;6.87;95.25;99982.25;5100764;28;20172;-55
2023/03/02 01:33:30;;;;;;;22.77;15.20;;;;;;;7.20;94.79;100030.38;5091715;28;20180;-55
2023/03/02 01:35:57;;;;;;;22.27;15.97;;;;;;;7.14;95.28;100029.28;5089607;28;20190;-55
2023/03/02 01:38:24;;;;;;;25.60;18.70;;;;;;;7.05;94.86;100028.09;5087035;28;20184;-55
2023/03/02 01:40:50;;;;;;;30.73;19.07;;;;;;;7.13;95.20;100026.69;5082255;28;20259;-55
2023/03/02 01:43:17;;;;;;;24.13;17.07;;;;;;;7.16;94.61;100021.72;5093709;28;20187;-55
2023/03/02 01:45:52;;;;;;;23.95;17.95;;;;;;;7.31;94.71;100016.28;5099767;28;20432;-55
2023/03/02 01:48:25;;;;;;;22.33;16.67;;;;;;;7.43;93.40;100025.28;5100531;28;20187;-55
2023/03/02 01:50:53;;;;;;;20.90;14.90;;;;;;;7.33;92.94;100010.44;5100570;28;20191;-55
2023/03/02 01:53:22;;;;;;;23.97;16.57;;;;;;;7.21;93.17;99996.31;5100360;28;20192;-54
2023/03/02 01:55:49;;;;;;;25.90;18.97;;;;;;;7.30;92.78;100010.31;5100466;28;20207;-56
2023/03/02 01:58:17;;;;;;;27.80;20.50;;;;;;;7.33;92.68;100023.22;5100100;28;20195;-55
2023/03/02 02:00:46;;;;;;;27.33;17.60;;;;;;;7.32;92.47;100006.13;5100069;28;20230;-55
2023/03/02 02:03:19;;;;;;;29.63;17.80;;;;;;;7.30;92.93;100010.31;5099968;28;20178;-55
2023/03/02 02:05:53;;;;;;;24.43;17.90;;;;;;;7.24;93.00;100006.66;5098717;28;20179;-55
2023/03/02 02:08:20;;;;;;;28.27;19.93;;;;;;;7.22;92.84;100006.63;5100245;28;20167;-54
2023/03/02 02:10:47;;;;;;;30.23;22.50;;;;;;;7.22;93.45;99998.06;5100294;28;20250;-55
2023/03/02 02:13:13;;;;;;;31.43;22.00;;;;;;;7.29;92.76;100006.00;5100274;28;20168;-55
2023/03/02 02:15:41;;;;;;;29.37;22.60;;;;;;;7.22;93.07;99988.72;5100185;28;20168;-55
2023/03/02 02:18:09;;;;;;;28.27;20.80;;;;;;;7.37;92.29;100009.72;5099931;28;20187;-56
2023/03/02 02:20:39;;;;;;;28.43;20.73;;;;;;;7.31;92.62;100012.03;5100202;28;20207;-55
2023/03/02 02:23:18;;;;;;;26.60;17.97;;;;;;;7.23;92.57;100010.88;5100094;28;20206;-56
2023/03/02 02:26:04;;;;;;;25.00;16.70;;;;;;;7.31;92.83;100006.94;5099349;28;20182;-55
2023/03/02 02:28:35;;;;;;;22.37;14.30;;;;;;;7.22;92.89;99998.94;5099821;28;20235;-55
2023/03/02 02:31:10;;;;;;;19.80;14.40;;;;;;;7.32;92.08;100001.03;5099935;28;20179;-59
2023/03/02 02:33:39;;;;;;;20.30;14.33;;;;;;;7.33;92.28;99991.66;5099923;28;20177;-54
2023/03/02 02:36:10;;;;;;;18.63;13.27;;;;;;;7.39;92.00;100000.41;5099827;28;20171;-54
2023/03/02 02:38:39;;;;;;;19.93;12.73;;;;;;;7.31;91.52;99995.84;5099501;28;20168;-54
2023/03/02 02:41:17;;;;;;;17.77;12.07;;;;;;;7.37;90.81;99993.50;5099723;28;20171;-55
2023/03/02 02:43:44;;;;;;;21.53;12.27;;;;;;;7.40;90.60;99991.06;5099513;28;20172;-55
2023/03/02 02:46:12;;;;;;;18.63;12.07;;;;;;;7.37;90.23;100002.06;5099365;28;20202;-55
2023/03/02 02:48:39;;;;;;;15.70;11.63;;;;;;;7.37;89.62;99996.94;5099456;28;20194;-54
2023/03/02 02:51:08;;;;;;;23.93;12.17;;;;;;;7.28;89.93;99988.91;5099472;28;20179;-55
2023/03/02 02:53:42;;;;;;;19.13;12.27;;;;;;;7.14;90.75;99982.47;5099430;28;20171;-55
2023/03/02 02:56:13;;;;;;;21.63;12.83;;;;;;;7.15;90.71;99984.19;5099308;28;20186;-55
2023/03/02 02:58:44;;;;;;;17.67;13.00;;;;;;;7.14;91.31;99985.84;5099361;28;20232;-55
2023/03/02 03:01:14;;;;;;;20.03;12.47;;;;;;;7.23;91.03;99981.91;5099351;28;20167;-55
2023/03/02 03:03:45;;;;;;;23.87;15.03;;;;;;;7.12;91.20;99982.38;5116368;28;20209;-55
2023/03/02 03:06:18;;;;;;;22.33;17.17;;;;;;;7.13;91.47;99986.69;5119604;28;20163;-55
2023/03/02 03:08:52;;;;;;;21.73;17.63;;;;;;;7.08;91.88;99983.09;5119361;28;20173;-55
2023/03/02 03:11:23;;;;;;;22.87;17.43;;;;;;;7.03;91.88;99955.63;5119358;28;20163;-56
2023/03/02 03:13:53;;;;;;;23.53;17.33;;;;;;;7.24;91.76;99986.22;5119094;28;20171;-55
2023/03/02 03:16:21;;;;;;;23.10;15.67;;;;;;;7.27;91.28;99981.22;5119202;28;20186;-55
2023/03/02 03:18:51;;;;;;;19.27;15.67;;;;;;;7.36;91.38;99990.06;5119027;28;20175;-55
2023/03/02 03:21:18;;;;;;;20.80;16.87;;;;;;;7.40;91.07;99978.28;5102075;28;20219;-55
2023/03/02 03:23:45;;;;;;;23.02;18.52;;;;;;;7.43;90.55;99986.06;5098079;28;20417;-55
2023/03/02 03:26:12;;;;;;;21.10;17.60;;;;;;;7.46;90.21;99983.63;5098151;28;20241;-55
2023/03/02 03:28:40;;;;;;;18.97;15.37;;;;;;;7.41;89.54;99977.47;5098445;28;20218;-55
2023/03/02 03:31:07;;;;;;;19.93;16.17;;;;;;;7.32;89.87;99965.22;5098445;28;20181;-54
2023/03/02 03:33:34;;;;;;;20.30;16.67;;;;;;;7.44;90.17;99969.94;5098022;28;20187;-54
2023/03/02 03:36:01;;;;;;;22.43;15.87;;;;;;;7.49;90.06;99969.28;5098295;28;20205;-54
2023/03/02 03:38:28;;;;;;;22.47;16.27;;;;;;;7.38;89.90;99964.59;5101753;28;20263;-56
2023/03/02 03:40:55;;;;;;;20.23;15.93;;;;;;;7.30;91.17;99972.00;5098304;28;20195;-55
2023/03/02 03:43:21;;;;;;;18.33;14.70;;;;;;;7.23;91.45;99977.66;5111285;28;20186;-56
2023/03/02 03:45:51;;;;;;;24.83;18.23;;;;;;;7.28;91.51;99986.38;5118689;28;20171;-54
2023/03/02 03:48:18;;;;;;;22.80;16.63;;;;;;;7.28;91.31;99988.91;5118581;28;20171;-54
2023/03/02 03:50:44;;;;;;;21.93;15.93;;;;;;;7.27;91.72;99989.75;5104496;28;20202;-54
2023/03/02 03:53:11;;;;;;;20.87;15.87;;;;;;;7.30;91.46;99987.31;5113130;28;20214;-55
2023/03/02 03:55:38;;;;;;;20.00;15.57;;;;;;;7.29;91.22;99988.13;5118483;28;20173;-54
2023/03/02 03:58:05;;;;;;;24.93;18.53;;;;;;;7.17;91.25;99984.25;5118089;28;20178;-54
2023/03/02 04:00:31;;;;;;;18.87;15.10;;;;;;;7.18;91.70;99986.84;5118304;28;20208;-55
2023/03/02 04:03:00;;;;;;;20.00;15.00;;;;;;;7.26;91.75;99993.13;5104563;28;20197;-53
2023/03/02 04:05:27;;;;;;;21.73;15.40;;;;;;;7.03;91.18;99993.97;5097867;28;20186;-54
2023/03/02 04:07:54;;;;;;;20.60;15.07;;;;;;;7.01;92.30;99990.44;5097932;28;20210;-55
2023/03/02 04:10:21;;;;;;;18.77;15.63;;;;;;;7.09;92.25;99987.38;5097791;28;20237;-55
2023/03/02 04:12:48;;;;;;;22.30;15.83;;;;;;;7.12;92.14;99996.84;5097684;28;20168;-54
2023/03/02 04:15:16;;;;;;;18.80;14.60;;;;;;;7.16;91.80;99988.50;5097855;28;20188;-54
2023/03/02 04:17:44;;;;;;;19.53;15.33;;;;;;;7.16;92.31;99978.28;5078121;28;20203;-54
2023/03/02 04:20:15;;;;;;;22.33;14.83;;;;;;;7.04;91.08;99968.44;5077467;28;20229;-55
2023/03/02 04:22:44;;;;;;;24.50;14.87;;;;;;;7.01;91.93;99975.13;5077634;28;20181;-54
2023/03/02 04:25:11;;;;;;;21.40;18.05;;;;;;;6.90;93.20;99956.84;5077019;28;20455;-55
2023/03/02 04:27:39;;;;;;;20.63;16.50;;;;;;;6.90;92.43;99961.06;5077462;28;20207;-54
2023/03/02 04:30:08;;;;;;;22.93;16.57;;;;;;;6.96;93.01;99974.09;5077422;28;20183;-55
2023/03/02 04:32:35;;;;;;;22.10;15.80;;;;;;;6.96;93.14;99974.09;5077359;28;20179;-55
2023/03/02 04:35:01;;;;;;;26.63;16.13;;;;;;;6.95;92.95;99982.56;5086593;28;20201;-55
2023/03/02 04:37:29;;;;;;;21.27;14.87;;;;;;;6.96;92.90;99992.84;5097403;28;20192;-55
2023/03/02 04:39:56;;;;;;;23.67;16.03;;;;;;;6.99;93.13;99992.09;5101684;28;20233;-55
2023/03/02 04:42:23;;;;;;;23.57;16.27;;;;;;;7.03;91.97;100001.63;5115928;28;20252;-55
2023/03/02 04:44:50;;;;;;;19.50;15.90;;;;;;;7.11;91.81;100002.78;5115878;28;20191;-54
2023/03/02 04:47:17;;;;;;;21.57;16.03;;;;;;;7.18;91.74;100002.19;5117802;28;20196;-54
2023/03/02 04:49:44;;;;;;;24.70;17.37;;;;;;;7.17;91.54;100002.97;5121131;28;20174;-54
2023/03/02 04:52:11;;;;;;;19.43;15.97;;;;;;;7.05;91.76;99997.44;5107383;28;20191;-54
2023/03/02 04:54:39;;;;;;;22.90;16.03;;;;;;;7.06;91.98;100001.72;5103495;28;20186;-54
2023/03/02 04:57:07;;;;;;;20.60;15.80;;;;;;;7.13;92.03;100011.38;5104004;28;20181;-54
2023/03/02 04:59:34;;;;;;;23.53;16.10;;;;;;;7.06;91.19;99981.28;5120655;27;20222;-54
2023/03/02 05:02:02;;;;;;;22.20;17.43;;;;;;;7.12;90.99;99999.41;5105004;28;20191;-54
2023/03/02 05:04:28;;;;;;;20.37;16.10;;;;;;;7.17;91.03;100012.38;5103916;28;20201;-54
2023/03/02 05:06:56;;;;;;;25.60;16.83;;;;;;;7.20;91.15;100013.31;5103562;28;20207;-54
2023/03/02 05:09:26;;;;;;;23.03;16.07;;;;;;;7.13;91.48;100008.81;5103834;28;20171;-54
2023/03/02 05:11:55;;;;;;;22.60;16.53;;;;;;;7.12;91.01;100007.94;5103622;28;20179;-55
2023/03/02 05:14:22;;;;;;;24.07;16.87;;;;;;;7.05;91.26;100010.22;5103628;28;20175;-55
2023/03/02 05:16:49;;;;;;;21.70;16.33;;;;;;;7.06;91.78;100011.94;5103576;28;20167;-55
2023/03/02 05:19:16;;;;;;;24.07;17.97;;;;;;;7.13;91.86;100012.25;5103788;28;20182;-55
2023/03/02 05:21:43;;;;;;;25.00;17.30;;;;;;;7.18;91.17;100011.53;5085011;28;20234;-56
2023/03/02 05:24:11;;;;;;;23.87;17.77;;;;;;;7.24;91.50;100012.66;5083491;28;20175;-55
2023/03/02 05:26:38;;;;;;;27.63;17.53;;;;;;;7.33;91.40;100023.22;5083175;28;20175;-55
2023/03/02 05:29:07;;;;;;;26.90;18.13;;;;;;;7.36;90.80;100025.00;5083593;28;20171;-54
2023/03/02 05:31:36;;;;;;;25.17;18.43;;;;;;;7.17;91.26;100020.03;5083611;28;20211;-56
2023/03/02 05:34:03;;;;;;;27.73;17.90;;;;;;;7.27;91.21;100022.97;5083593;28;20168;-56
2023/03/02 05:36:30;;;;;;;25.33;18.03;;;;;;;7.33;91.01;100023.22;5083507;28;20189;-55
2023/03/02 05:38:58;;;;;;;23.70;18.20;;;;;;;7.27;90.51;100024.66;5083596;28;20239;-55
2023/03/02 05:41:25;;;;;;;22.10;16.97;;;;;;;7.15;90.57;100030.16;5083400;28;20209;-55
2023/03/02 05:43:52;;;;;;;24.90;19.43;;;;;;;7.14;91.31;100020.78;5083266;28;20175;-55
2023/03/02 05:46:21;;;;;;;29.57;19.27;;;;;;;7.00;91.39;100027.03;5083191;28;20185;-55
2023/03/02 05:48:47;;;;;;;21.80;17.13;;;;;;;7.16;91.74;100029.38;5083295;28;20172;-55
2023/03/02 05:51:14;;;;;;;26.90;18.93;;;;;;;7.19;91.07;100026.94;5083242;28;20176;-55
2023/03/02 05:53:41;;;;;;;23.50;15.73;;;;;;;7.05;91.51;100016.19;5083363;28;20196;-54
2023/03/02 05:56:08;;;;;;;25.10;18.37;;;;;;;7.10;91.18;100034.25;5083109;28;20176;-54
2023/03/02 05:58:35;;;;;;;31.47;19.53;;;;;;;7.06;91.90;100030.69;5083092;28;20168;-54
2023/03/02 06:01:02;;;;;;;23.17;17.60;;;;;;;7.16;92.01;100039.59;5080143;28;20249;-55
2023/03/02 06:03:30;;;;;;;25.40;18.13;;;;;;;7.25;92.06;100039.91;5079953;28;20175;-55
2023/03/02 06:05:57;;;;;;;28.53;22.27;;;;;;;7.36;91.81;100033.53;5078679;28;20419;-55
2023/03/02 06:08:24;;;;;;;29.10;19.60;;;;;;;7.36;91.66;100036.09;5079916;28;20188;-55
2023/03/02 06:10:55;;;;;;;26.93;19.57;;;;;;;7.45;90.69;100043.22;5079914;28;20176;-54
2023/03/02 06:13:21;;;;;;;24.60;17.47;;;;;;;7.42;90.20;100035.44;5079819;28;20218;-54
2023/03/02 06:15:48;;;;;;;23.47;17.27;;;;;;;7.47;90.06;100039.06;5079344;28;20195;-55
2023/03/02 06:18:15;;;;;;;27.00;17.93;;;;;;;7.53;90.06;100035.03;5083275;28;20280;-55
2023/03/02 06:20:43;;;;;;;21.53;16.87;;;;;;;7.42;90.30;100044.00;5099635;28;20229;-54
2023/03/02 06:23:11;;;;;;;26.87;18.17;;;;;;;7.48;90.23;100049.34;5099543;28;20172;-54
2023/03/02 06:25:40;;;;;;;27.10;17.77;;;;;;;7.51;90.03;100051.13;5099678;28;20197;-54
2023/03/02 06:28:06;;;;;;;26.17;18.23;;;;;;;7.46;90.25;100056.09;5099312;28;20215;-54
2023/03/02 06:30:33;;;;;;;30.00;20.03;;;;;;;7.52;90.48;100052.88;5099534;28;20171;-55
2023/03/02 06:33:00;;;;;;;23.70;18.43;;;;;;;6.95;90.29;99978.31;5088027;28;20188;-55
2023/03/02 06:35:27;;;;;;;32.77;19.70;;;;;;;7.55;90.48;100058.97;5079282;28;20195;-55
2023/03/02 06:37:55;;;;;;;24.17;17.33;;;;;;;7.56;90.12;100059.84;5097408;28;20187;-55
2023/03/02 06:40:22;;;;;;;32.80;18.80;;;;;;;7.41;90.63;100057.59;5098997;28;20228;-54
2023/03/02 06:42:49;;;;;;;28.43;18.60;;;;;;;7.44;90.43;100060.28;5099360;28;20251;-56
2023/03/02 06:45:17;;;;;;;35.03;19.50;;;;;;;7.46;91.22;100070.53;5099346;28;20181;-56
2023/03/02 06:47:43;;;;;;;31.07;17.30;;;;;;;7.52;91.29;100068.22;5098358;28;20254;-54
2023/03/02 06:50:11;;;;;;;26.77;17.80;;;;;;;7.49;91.00;100069.00;5098197;28;20210;-55
2023/03/02 06:52:38;;;;;;;26.73;19.20;;;;;;;7.47;90.95;100060.38;5097523;28;20199;-55
2023/03/02 06:55:07;;;;;;;25.17;16.57;;;;;;;7.29;90.72;100067.34;5095587;28;20191;-55
2023/03/02 06:57:34;;;;;;;26.67;17.90;;;;;;;7.36;91.70;100056.53;5095781;28;20183;-56
2023/03/02 07:00:05;;;;;;;29.53;18.90;;;;;;;7.52;91.78;100066.56;5098499;28;20251;-56
2023/03/02 07:02:32;;;;;;;24.30;17.57;;;;;;;7.37;91.51;100063.41;5094650;28;20183;-56
2023/03/02 07:04:59;;;;;;;29.08;21.63;;;;;;;7.40;91.25;100058.41;5100112;28;20416;-55
2023/03/02 07:07:26;;;;;;;27.00;19.07;;;;;;;7.35;91.93;100064.16;5098298;28;20202;-56
2023/03/02 07:09:52;;;;;;;28.90;18.97;;;;;;;7.52;91.48;100070.78;5098476;28;20188;-55
2023/03/02 07:12:20;;;;;;;21.03;16.80;;;;;;;7.59;91.04;100065.94;5098040;28;20172;-55
2023/03/02 07:14:47;;;;;;;26.17;17.33;;;;;;;7.57;90.69;100064.16;5098292;28;20231;-55
2023/03/02 07:17:14;;;;;;;26.87;17.10;;;;;;;7.58;90.23;100068.47;5097951;28;20192;-54
2023/03/02 07:19:41;;;;;;;26.43;17.60;;;;;;;7.62;89.99;100071.19;5098141;28;20175;-55
2023/03/02 07:22:08;;;;;;;25.40;17.80;;;;;;;7.67;89.86;100077.31;5097920;28;20222;-55
2023/03/02 07:24:34;;;;;;;27.40;18.60;;;;;;;7.68;89.92;100070.53;5098043;28;20194;-55
2023/03/02 07:27:01;;;;;;;28.70;17.90;;;;;;;7.72;89.54;100073.25;5097824;28;20187;-54
2023/03/02 07:29:30;;;;;;;29.53;19.30;;;;;;;7.57;89.69;100043.69;5097981;28;20179;-55
2023/03/02 07:31:59;;;;;;;30.10;18.07;;;;;;;7.71;89.47;100071.53;5097889;28;20198;-59
2023/03/02 07:34:26;;;;;;;31.50;17.73;;;;;;;7.63;89.50;100070.38;5097865;28;20179;-55
2023/03/02 07:36:53;;;;;;;32.53;19.10;;;;;;;7.68;89.41;100073.97;5095561;28;20172;-55
2023/03/02 07:39:20;;;;;;;34.80;18.40;;;;;;;7.64;89.26;100077.22;5097767;28;20266;-55
2023/03/02 07:41:47;;;;;;;31.50;19.03;;;;;;;7.63;89.71;100070.38;5098166;28;20203;-55
2023/03/02 07:44:14;;;;;;;30.57;18.67;;;;;;;7.48;89.92;100080.00;5098379;28;20179;-55
2023/03/02 07:46:43;;;;;;;30.37;18.90;;;;;;;7.48;91.51;100085.13;5098200;28;20197;-55
2023/03/02 07:49:09;;;;;;;31.20;20.67;;;;;;;7.62;91.22;100086.53;5098080;28;20197;-54
2023/03/02 07:51:36;;;;;;;30.80;19.90;;;;;;;7.56;90.71;100085.41;5097366;28;20938;-54
2023/03/02 07:54:03;;;;;;;32.20;19.67;;;;;;;7.54;90.90;100079.38;5097598;28;20181;-54
2023/03/02 07:56:30;;;;;;;33.53;20.00;;;;;;;7.55;90.44;100087.09;5097720;28;20182;-54
2023/03/02 07:58:57;;;;;;;31.37;20.70;;;;;;;7.60;90.61;100082.16;5097329;28;20178;-54
2023/03/02 08:01:24;;;;;;;31.47;18.57;;;;;;;7.64;90.07;100092.56;5097477;28;20254;-54
2023/03/02 08:03:52;;;;;;;28.37;19.30;;;;;;;7.58;89.83;100079.53;5097236;28;20176;-54
2023/03/02 08:06:19;;;;;;;30.40;21.13;;;;;;;7.56;90.15;100076.06;5097585;28;20182;-54
2023/03/02 08:08:46;;;;;;;31.97;19.83;;;;;;;7.49;89.85;100048.53;5096086;28;20180;-59
2023/03/02 08:11:15;;;;;;;26.67;19.27;;;;;;;7.63;89.45;100077.16;5097765;28;20179;-55
2023/03/02 08:13:43;;;;;;;28.67;19.13;;;;;;;7.55;89.65;100084.53;5097171;28;20211;-55
2023/03/02 08:16:11;;;;;;;32.63;19.70;;;;;;;7.63;90.48;100079.72;5097548;28;20211;-55
2023/03/02 08:18:40;;;;;;;30.70;19.27;;;;;;;7.59;89.96;100075.28;5097333;28;20190;-55
2023/03/02 08:21:14;;;;;;;23.13;17.93;;;;;;;7.65;89.53;100078.97;5097006;28;20218;-55
2023/03/02 08:23:41;;;;;;;24.57;19.40;;;;;;;7.72;89.07;100080.91;5088284;28;20195;-54
2023/03/02 08:26:08;;;;;;;29.33;17.83;;;;;;;7.66;89.28;100074.72;5076940;28;20169;-55
2023/03/02 08:28:35;;;;;;;28.43;19.83;;;;;;;7.59;89.67;100068.50;5082568;28;20207;-55
2023/03/02 08:31:03;;;;;;;28.07;20.43;;;;;;;7.83;90.25;100073.63;5097315;28;20200;-55
2023/03/02 08:33:30;;;;;;;28.87;19.33;;;;;;;7.93;89.32;100075.72;5097203;28;20186;-54
2023/03/02 08:35:58;;;;;;;30.37;18.90;;;;;;;7.95;89.30;100070.66;5095676;28;20191;-55
2023/03/02 08:38:27;;;;;;;28.60;18.87;;;;;;;8.04;89.09;100076.97;5088348;28;20188;-55
2023/03/02 08:40:54;;;;;;;31.00;22.43;;;;;;;8.07;88.41;100073.66;5075937;28;20446;-55
2023/03/02 08:43:22;;;;;;;23.33;18.30;;;;;;;7.99;88.18;100054.59;5092005;28;20200;-55
2023/03/02 08:45:51;;;;;;;24.10;18.47;;;;;;;8.19;88.35;100076.63;5096706;28;20209;-55
2023/03/02 08:48:18;;;;;;;25.63;20.27;;;;;;;8.25;88.32;100075.16;5090807;28;20205;-54
2023/03/02 08:50:45;;;;;;;29.93;20.20;;;;;;;8.25;88.26;100074.28;5095566;28;20190;-55
2023/03/02 08:53:12;;;;;;;25.60;18.83;;;;;;;8.13;88.53;100067.03;5095951;28;20172;-55
2023/03/02 08:55:40;;;;;;;27.33;21.37;;;;;;;8.13;88.89;100073.88;5095502;28;20175;-55
2023/03/02 08:58:07;;;;;;;26.63;19.33;;;;;;;8.12;89.27;100070.44;5095897;28;20189;-54
2023/03/02 09:00:33;;;;;;;28.57;20.03;;;;;;;8.19;89.37;100069.81;5096056;28;20188;-55
2023/03/02 09:03:01;;;;;;;28.03;19.27;;;;;;;8.24;89.02;100072.56;5096290;28;20176;-54
2023/03/02 09:05:27;;;;;;;29.00;21.83;;;;;;;8.16;88.97;100072.28;5096217;28;20179;-55
2023/03/02 09:07:54;;;;;;;29.40;20.37;;;;;;;8.25;89.17;100075.16;5096129;28;20172;-56
2023/03/02 09:10:21;;;;;;;29.73;21.67;;;;;;;8.14;90.04;100065.38;5095820;28;20188;-54
2023/03/02 09:12:49;;;;;;;29.53;22.40;;;;;;;8.20;90.39;100068.13;5095907;28;20175;-55
2023/03/02 09:15:16;;;;;;;32.00;22.57;;;;;;;8.22;91.00;100059.69;5096100;28;20171;-55
2023/03/02 09:17:43;;;;;;;32.70;23.23;;;;;;;8.28;91.29;100064.19;5096138;28;20206;-55
2023/03/02 09:20:11;;;;;;;29.33;21.80;;;;;;;8.29;91.73;100065.94;5093576;28;20215;-55
2023/03/02 09:22:37;;;;;;;29.97;21.87;;;;;;;8.27;91.30;100065.00;5076772;28;20200;-55
2023/03/02 09:25:05;;;;;;;29.70;21.50;;;;;;;8.13;90.91;100055.97;5096379;28;20189;-55
2023/03/02 09:27:32;;;;;;;31.67;22.43;;;;;;;8.12;91.15;100064.44;5096072;28;20241;-54
2023/03/02 09:30:00;;;;;;;29.17;20.63;;;;;;;7.99;90.97;100029.03;5096157;28;20180;-55
2023/03/02 09:32:27;;;;;;;28.00;20.97;;;;;;;8.23;90.98;100063.13;5096182;28;20200;-55
2023/03/02 09:34:54;;;;;;;27.57;20.70;;;;;;;8.17;91.11;100061.22;5095905;28;20242;-54
2023/03/02 09:37:20;;;;;;;28.27;21.10;;;;;;;8.34;91.55;100064.41;5099925;28;20186;-55
2023/03/02 09:39:47;;;;;;;30.50;22.00;;;;;;;8.29;90.54;100061.66;5099646;28;20182;-56
2023/03/02 09:42:29;;;;;;;30.60;23.37;;;;;;;8.39;90.99;100062.88;5099506;28;20274;-56
2023/03/02 09:45:13;;;;;;;27.33;20.53;;;;;;;8.16;90.96;100054.34;5099910;28;20179;-55
2023/03/02 09:47:50;;;;;;;31.33;22.30;;;;;;;8.03;91.18;100007.81;5099951;28;20176;-55
2023/03/02 09:50:27;;;;;;;29.77;22.67;;;;;;;8.13;91.55;100049.13;5099762;28;20175;-54
2023/03/02 09:53:14;;;;;;;28.07;20.50;;;;;;;8.18;92.47;100039.06;5095899;28;20182;-54
2023/03/02 09:55:40;;;;;;;30.67;21.93;;;;;;;8.26;92.15;100046.19;5099293;28;20195;-54
2023/03/02 09:58:15;;;;;;;31.27;23.73;;;;;;;8.34;92.22;100036.25;5099187;28;20168;-54
2023/03/02 10:00:45;;;;;;;31.47;22.20;;;;;;;8.42;92.14;100039.94;5096572;28;20167;-55
2023/03/02 10:03:17;;;;;;;27.40;21.53;;;;;;;8.24;91.55;100001.72;5100040;28;20179;-55
2023/03/02 10:05:47;;;;;;;30.50;21.83;;;;;;;8.39;91.71;100027.03;5099568;28;20210;-54
2023/03/02 10:08:15;;;;;;;30.87;21.87;;;;;;;8.42;91.42;100039.94;5099111;28;20200;-55
2023/03/02 10:10:45;;;;;;;30.30;22.50;;;;;;;8.45;91.68;100029.78;5099158;28;20200;-55
2023/03/02 10:13:22;;;;;;;31.93;23.60;;;;;;;8.24;91.58;99994.06;5099144;28;20172;-56
2023/03/02 10:15:59;;;;;;;29.83;22.53;;;;;;;8.55;90.67;100036.06;5098809;28;20205;-55
2023/03/02 10:18:34;;;;;;;32.30;22.20;;;;;;;8.43;89.94;100035.69;5094116;28;20190;-55
2023/03/02 10:21:04;;;;;;;28.93;22.70;;;;;;;8.45;89.67;100032.34;5101825;28;20185;-55
2023/03/02 10:23:41;;;;;;;34.27;23.80;;;;;;;8.51;89.67;100037.69;5119012;28;20175;-54
2023/03/02 10:26:20;;;;;;;29.80;22.47;;;;;;;8.56;89.45;100037.81;5085645;28;20172;-54
2023/03/02 10:28:50;;;;;;;26.27;20.33;;;;;;;8.48;88.33;100039.25;5088491;28;20199;-54
2023/03/02 10:31:26;;;;;;;29.10;20.67;;;;;;;8.53;88.04;100030.03;5098651;28;20251;-55
2023/03/02 10:33:52;;;;;;;25.70;18.77;;;;;;;8.35;87.53;100016.63;5083017;28;20274;-55
2023/03/02 10:36:23;;;;;;;26.17;19.43;;;;;;;8.39;87.71;100021.91;5079537;28;20192;-55
2023/03/02 10:38:50;;;;;;;27.57;19.90;;;;;;;8.42;88.00;100022.00;5078552;28;20188;-55
2023/03/02 10:41:22;;;;;;;23.50;19.13;;;;;;;8.44;87.83;100022.03;5078526;28;20214;-55
2023/03/02 10:43:52;;;;;;;29.10;21.07;;;;;;;8.43;88.10;100010.97;5078492;28;20182;-56
2023/03/02 10:46:20;;;;;;;26.07;20.43;;;;;;;8.46;88.23;100011.03;5078619;28;20180;-54
2023/03/02 10:48:49;;;;;;;26.40;20.37;;;;;;;8.46;88.32;100010.19;5077759;28;20180;-54
2023/03/02 10:51:26;;;;;;;28.93;20.50;;;;;;;8.51;88.32;100006.94;5092202;28;20238;-55
2023/03/02 10:54:05;;;;;;;34.13;20.53;;;;;;;8.54;88.03;99995.94;5078288;28;20186;-54
2023/03/02 10:56:33;;;;;;;32.20;23.07;;;;;;;8.58;87.92;99996.06;5078553;28;20188;-55
2023/03/02 10:59:02;;;;;;;34.40;23.03;;;;;;;8.43;87.85;99974.22;5078352;28;20172;-55
2023/03/02 11:01:31;;;;;;;35.90;23.47;;;;;;;8.44;87.61;99960.59;5078252;28;20255;-55
2023/03/02 11:04:00;;;;;;;32.23;23.50;;;;;;;8.38;87.75;99994.53;5078150;28;20191;-55
2023/03/02 11:06:28;;;;;;;31.43;23.63;;;;;;;8.52;88.19;99995.00;5077866;28;20188;-55
2023/03/02 11:09:00;;;;;;;32.93;23.17;;;;;;;8.52;87.34;100003.53;5092887;28;20193;-55
2023/03/02 11:11:27;;;;;;;30.40;23.30;;;;;;;8.58;86.82;99993.50;5095113;28;20189;-54
2023/03/02 11:13:55;;;;;;;31.13;22.60;;;;;;;8.63;86.00;99999.63;5098015;28;20180;-55
2023/03/02 11:16:30;;;;;;;30.90;23.00;;;;;;;8.17;86.17;99924.72;5097873;28;20239;-55
2023/03/02 11:19:03;;;;;;;34.60;24.63;;;;;;;8.38;86.10;99952.75;5096274;28;20175;-54
2023/03/02 11:21:34;;;;;;;34.23;25.20;;;;;;;8.60;86.12;99986.72;5096300;28;20199;-57
2023/03/02 11:24:10;;;;;;;37.67;25.63;;;;;;;8.57;86.15;99985.78;5095129;28;20210;-55
2023/03/02 11:26:42;;;;;;;38.33;26.40;;;;;;;8.44;86.33;99988.75;5091586;28;20204;-54